Terminal Aerodrome Forecast
Issued by NWS

Home | Current Version | Previous Version | Graphics & Text | Print | Product List | Glossary On
Versions: 1 2 3 4 5 6 7 8 9 10 11 12 13 14 15
891
FTUS43 KOAX 141131
TAFCDR
TAF
KCDR 141131Z 1412/1512 33008KT P6SM BKN050
     FM141700 32020G28KT 6SM -SHRA BKN025 OVC050
     FM142200 31015G25KT P6SM VCSH BKN050 BKN100
     FM150000 27007KT P6SM SKC=

USA.gov is the U.S. government's official web portal to all federal, state and local government web resources and services.